Terminal Aerodrome Forecast
Issued by NWS Memphis, TN

Home | Current Version | Previous Version | Text Only | Print | Product List | Glossary On
Versions: 1 2 3 4 5 6 7 8 9 10 11 12 13 14 15
636
FTUS44 KMEG 260522
TAFMKL
TAF
KMKL 260522Z 2606/2706 17007KT P6SM FEW250
     FM261200 18010KT P6SM OVC015
     FM261600 18012G18KT P6SM BKN025
     FM261900 18014G20KT P6SM SCT040
     FM270200 18018G28KT 3SM TSRA BR SCT015 OVC030CB
      TEMPO 2703/2705 27025G35KT 1 1/2SM TSRA OVC015CB
     FM270500 27012KT P6SM VCSH BKN030=

USA.gov is the U.S. government's official web portal to all federal, state and local government web resources and services.